メインページ
METAR-TAF:

METAR-TAF

空港 :

ザグレブ, クロアチア

ザグレブ国際空港

緯度: 45-44N, 経度: 016-04E, 海抜: 106m

現時点の気象観測

当レポートは10分前の23:30(UTC)に作成
変向風 1kt
気温 7°C
湿度 81%
気圧 1023 hPa
視程10km以上
1,500メートル以下は雲なし、積乱雲なし

METAR: LDZA 232330Z VRB01KT CAVOK 07/04 Q1023 NOSIG

時間: 01:40 (23:40 UTC)

予報

当レポートは6時間15分前の17:25(UTC)に作成
予報は23日の 18時(UTC)から 24日の 18時(UTC)まで有効
変向風 2kt
視程10km以上
1,500メートル以下は雲なし、積乱雲なし
24日の 14時(UTC)から 24日の 16時(UTC)まで徐々に
南西の風 8kt

TAF: LDZA 231725Z 2318/2418 VRB02KT CAVOK TX18/2414Z TN05/2404Z BECMG 2414/2416 23008KT

4,000以上の空港の気象観測と天気予報(METAR報とTAF報)

利用可能な観測所は地図上に黄色い丸と赤い丸で示す。

丸の上にカーソルを重ねると観測所名を参照できる。

次にクリックすると気象観測と天気予報を参照できる。

マップの切り替え:黒色「×」印の緑ボタンをクリックして拡大、「-」印の緑ボタンをクリックして縮小、緑色の三角印をクリックして隣りの地図に切り替え


METAR-TAF: